createdAt,value
2023-02-16T00:00:28.805Z,23.37
2023-02-16T00:02:55.722Z,20.67
2023-02-16T00:05:31.343Z,20.03
2023-02-16T00:08:00.066Z,22.00
2023-02-16T00:10:32.412Z,21.10
2023-02-16T00:13:18.221Z,21.67
2023-02-16T00:15:45.438Z,28.33
2023-02-16T00:18:20.362Z,32.50
2023-02-16T00:20:48.484Z,25.00
2023-02-16T00:23:15.495Z,24.43
2023-02-16T00:25:42.760Z,24.40
2023-02-16T00:28:20.564Z,23.50
2023-02-16T00:30:48.046Z,23.87
2023-02-16T00:33:20.419Z,18.37
2023-02-16T00:35:47.524Z,17.53
2023-02-16T00:38:14.632Z,21.33
2023-02-16T00:40:42.570Z,20.07
2023-02-16T00:43:23.520Z,19.20
2023-02-16T00:45:50.525Z,21.70
2023-02-16T00:48:17.327Z,21.50
2023-02-16T00:50:44.128Z,20.07
2023-02-16T00:53:11.754Z,19.00
2023-02-16T00:55:40.041Z,16.87
2023-02-16T00:58:13.372Z,16.93
2023-02-16T01:00:44.760Z,18.40
2023-02-16T01:03:31.748Z,18.50
2023-02-16T01:06:17.103Z,18.33
2023-02-16T01:09:02.607Z,18.40
2023-02-16T01:11:29.652Z,22.43
2023-02-16T01:13:57.497Z,24.17
2023-02-16T01:16:45.938Z,18.97
2023-02-16T01:19:13.446Z,17.00
2023-02-16T01:21:40.217Z,15.93
2023-02-16T01:24:07.230Z,17.20
2023-02-16T01:26:39.865Z,14.43
2023-02-16T01:29:06.753Z,14.73
2023-02-16T01:31:33.822Z,15.27
2023-02-16T01:34:00.628Z,18.70
2023-02-16T01:36:35.224Z,18.37
2023-02-16T01:39:02.662Z,17.00
2023-02-16T01:41:32.382Z,16.00
2023-02-16T01:44:05.468Z,19.97
2023-02-16T01:46:50.437Z,17.33
2023-02-16T01:49:20.532Z,19.97
2023-02-16T01:52:02.312Z,18.80
2023-02-16T01:54:49.717Z,17.17
2023-02-16T01:57:50.078Z,21.37
2023-02-16T02:00:40.393Z,17.87
2023-02-16T02:03:31.093Z,24.50
2023-02-16T02:05:57.991Z,17.13
2023-02-16T02:08:37.058Z,20.10
2023-02-16T02:11:18.439Z,19.43
2023-02-16T02:13:58.157Z,19.07
2023-02-16T02:16:27.621Z,19.10
2023-02-16T02:18:54.706Z,17.80
2023-02-16T02:22:04.940Z,17.50
2023-02-16T02:25:03.931Z,16.23
2023-02-16T02:27:53.860Z,16.83
2023-02-16T02:30:40.480Z,18.63
2023-02-16T02:33:28.498Z,16.43
2023-02-16T02:36:16.501Z,16.37
2023-02-16T02:39:01.679Z,16.97
2023-02-16T02:42:05.463Z,15.93
2023-02-16T02:44:49.009Z,20.93
2023-02-16T02:47:16.064Z,15.47
2023-02-16T02:49:53.410Z,16.47
2023-02-16T02:52:21.879Z,19.50
2023-02-16T02:55:09.097Z,19.13
2023-02-16T02:57:59.330Z,20.27
2023-02-16T03:00:44.145Z,17.07
2023-02-16T03:03:35.800Z,19.40
2023-02-16T03:06:09.668Z,20.27
2023-02-16T03:08:40.028Z,18.07
2023-02-16T03:11:40.256Z,21.13
2023-02-16T03:14:21.008Z,19.70
2023-02-16T03:17:13.614Z,18.63
2023-02-16T03:20:01.467Z,22.37
2023-02-16T03:22:47.992Z,20.53
2023-02-16T03:25:34.247Z,19.40
2023-02-16T03:28:23.038Z,22.53
2023-02-16T03:30:52.540Z,19.73
2023-02-16T03:33:20.510Z,23.07
2023-02-16T03:35:47.905Z,23.27
2023-02-16T03:38:14.670Z,22.07
2023-02-16T03:40:42.984Z,19.50
2023-02-16T03:43:09.822Z,18.47
2023-02-16T03:45:42.432Z,17.20
2023-02-16T03:48:09.592Z,17.47
2023-02-16T03:50:36.776Z,16.73
2023-02-16T03:53:07.360Z,18.20
2023-02-16T03:55:40.408Z,14.73
2023-02-16T03:58:09.543Z,17.60
2023-02-16T04:00:36.612Z,16.73
2023-02-16T04:03:05.606Z,18.57
2023-02-16T04:05:32.830Z,17.33
2023-02-16T04:07:59.748Z,18.77
2023-02-16T04:10:26.596Z,17.00
2023-02-16T04:12:53.495Z,14.83
2023-02-16T04:15:22.929Z,18.57
2023-02-16T04:17:50.078Z,15.37
2023-02-16T04:20:20.465Z,19.83
2023-02-16T04:22:48.043Z,16.70
2023-02-16T04:25:15.499Z,16.37
2023-02-16T04:27:43.269Z,18.60
2023-02-16T04:30:15.374Z,18.03
2023-02-16T04:32:42.523Z,15.17
2023-02-16T04:35:09.441Z,18.10
2023-02-16T04:37:36.336Z,20.57
2023-02-16T04:40:04.053Z,19.97
2023-02-16T04:42:30.857Z,15.50
2023-02-16T04:44:57.607Z,18.77
2023-02-16T04:47:26.660Z,16.57
2023-02-16T04:49:54.402Z,15.37
2023-02-16T04:52:21.280Z,16.37
2023-02-16T04:54:48.263Z,16.33
2023-02-16T04:57:15.655Z,15.73
2023-02-16T04:59:42.370Z,17.17
2023-02-16T05:02:09.161Z,14.60
2023-02-16T05:04:36.301Z,15.10
2023-02-16T05:07:03.100Z,16.33
2023-02-16T05:09:29.845Z,14.07
2023-02-16T05:12:15.320Z,18.43
2023-02-16T05:14:42.109Z,16.50
2023-02-16T05:17:16.212Z,18.40
2023-02-16T05:19:45.777Z,17.43
2023-02-16T05:22:12.903Z,16.03
2023-02-16T05:24:41.047Z,14.83
2023-02-16T05:27:11.718Z,23.17
2023-02-16T05:29:38.841Z,25.30
2023-02-16T05:32:06.441Z,26.00
2023-02-16T05:34:33.373Z,18.27
2023-02-16T05:37:00.199Z,15.90
2023-02-16T05:39:27.260Z,18.47
2023-02-16T05:41:54.028Z,17.30
2023-02-16T05:44:21.850Z,15.30
2023-02-16T05:46:48.622Z,22.37
2023-02-16T05:49:16.080Z,18.83
2023-02-16T05:51:43.294Z,20.77
2023-02-16T05:54:17.435Z,17.87
2023-02-16T05:56:46.060Z,14.97
2023-02-16T05:59:13.980Z,19.30
2023-02-16T06:01:41.121Z,20.90
2023-02-16T06:04:12.722Z,15.87
2023-02-16T06:06:40.478Z,17.83
2023-02-16T06:09:08.641Z,19.83
2023-02-16T06:11:35.965Z,15.77
2023-02-16T06:14:07.836Z,14.97
2023-02-16T06:16:35.596Z,17.00
2023-02-16T06:19:03.542Z,19.17
2023-02-16T06:21:30.824Z,16.83
2023-02-16T06:23:58.223Z,17.00
2023-02-16T06:26:25.924Z,16.27
2023-02-16T06:28:53.426Z,16.93
2023-02-16T06:31:20.629Z,20.53
2023-02-16T06:33:47.980Z,16.63
2023-02-16T06:36:15.459Z,17.27
2023-02-16T06:38:42.559Z,16.07
2023-02-16T06:41:09.547Z,17.93
2023-02-16T06:43:36.335Z,17.70
2023-02-16T06:46:03.374Z,15.37
2023-02-16T06:48:30.520Z,17.53
2023-02-16T06:50:57.405Z,18.30
2023-02-16T06:53:25.583Z,18.07
2023-02-16T06:55:52.615Z,15.97
2023-02-16T06:58:19.453Z,18.00
2023-02-16T07:00:46.417Z,17.60
2023-02-16T07:03:13.278Z,19.43
2023-02-16T07:05:41.216Z,20.07
2023-02-16T07:08:08.384Z,22.00
2023-02-16T07:10:48.935Z,20.87
2023-02-16T07:13:16.765Z,18.77
2023-02-16T07:15:43.517Z,22.70
2023-02-16T07:18:10.315Z,18.53
2023-02-16T07:20:37.862Z,20.57
2023-02-16T07:23:05.386Z,17.27
2023-02-16T07:25:32.291Z,19.40
2023-02-16T07:27:59.031Z,20.67
2023-02-16T07:30:25.937Z,20.70
2023-02-16T07:32:52.997Z,22.43
2023-02-16T07:35:19.917Z,22.90
2023-02-16T07:37:46.748Z,20.73
2023-02-16T07:40:13.987Z,23.17
2023-02-16T07:42:40.969Z,24.23
2023-02-16T07:45:08.211Z,28.73
2023-02-16T07:47:35.122Z,23.30
2023-02-16T07:50:01.887Z,22.73
2023-02-16T07:52:31.228Z,22.37
2023-02-16T07:54:59.204Z,22.77
2023-02-16T07:57:29.452Z,23.40
2023-02-16T07:59:56.734Z,23.63
2023-02-16T08:02:24.527Z,21.80
2023-02-16T08:04:54.392Z,21.07
2023-02-16T08:07:21.673Z,20.90
2023-02-16T08:09:49.771Z,22.17
2023-02-16T08:12:17.374Z,24.30
2023-02-16T08:14:46.697Z,30.37
2023-02-16T08:17:14.613Z,27.13
2023-02-16T08:19:41.932Z,22.60
2023-02-16T08:22:09.663Z,26.10
2023-02-16T08:24:37.763Z,21.10
2023-02-16T08:27:05.806Z,22.13
2023-02-16T08:29:33.826Z,21.53
2023-02-16T08:32:01.344Z,21.67
2023-02-16T08:34:29.775Z,26.60
2023-02-16T08:36:57.522Z,25.00
2023-02-16T08:39:27.466Z,25.13
2023-02-16T08:41:55.631Z,23.70
2023-02-16T08:44:25.219Z,24.47
2023-02-16T08:46:54.162Z,22.37
2023-02-16T08:49:23.715Z,22.77
2023-02-16T08:51:54.891Z,20.13
2023-02-16T08:54:29.006Z,22.47
2023-02-16T08:56:57.305Z,21.93
2023-02-16T08:59:27.932Z,26.70
2023-02-16T09:01:55.669Z,23.37
2023-02-16T09:04:22.750Z,23.50
2023-02-16T09:06:50.389Z,20.97
2023-02-16T09:09:17.996Z,26.57
2023-02-16T09:11:46.022Z,28.13
2023-02-16T09:14:13.080Z,27.83
2023-02-16T09:16:45.388Z,38.83
2023-02-16T09:19:14.959Z,24.87
2023-02-16T09:21:42.877Z,32.03
2023-02-16T09:24:11.596Z,24.20
2023-02-16T09:26:42.497Z,31.10
2023-02-16T09:29:10.945Z,24.97
2023-02-16T09:31:39.571Z,29.50
2023-02-16T09:34:23.546Z,24.03
2023-02-16T09:36:51.237Z,26.53
2023-02-16T09:39:18.826Z,31.10
2023-02-16T09:42:06.685Z,24.90
2023-02-16T09:44:33.437Z,25.70
2023-02-16T09:47:04.954Z,27.50
2023-02-16T09:49:44.434Z,21.60
2023-02-16T09:52:17.305Z,18.93
2023-02-16T09:54:53.330Z,22.90
2023-02-16T09:57:42.043Z,26.60
2023-02-16T10:00:26.029Z,21.13
2023-02-16T10:03:05.557Z,19.23
2023-02-16T10:05:43.362Z,17.03
2023-02-16T10:08:15.800Z,16.40
2023-02-16T10:11:47.048Z,20.33
2023-02-16T10:14:51.353Z,15.40
2023-02-16T10:17:30.639Z,15.77
2023-02-16T10:20:01.277Z,15.57
2023-02-16T10:22:36.410Z,17.33
2023-02-16T10:25:12.979Z,12.90
2023-02-16T10:27:43.120Z,11.90
2023-02-16T10:30:18.745Z,13.00
2023-02-16T10:32:56.096Z,11.27
2023-02-16T10:35:36.500Z,15.83
2023-02-16T10:38:10.902Z,11.50
2023-02-16T10:41:04.649Z,10.23
2023-02-16T10:43:40.419Z,18.23
2023-02-16T10:46:10.129Z,9.60
2023-02-16T10:48:37.826Z,13.60
2023-02-16T10:51:17.883Z,8.83
2023-02-16T10:53:50.162Z,10.17
2023-02-16T10:56:41.507Z,11.40
2023-02-16T10:59:16.465Z,9.10
2023-02-16T11:01:46.765Z,11.60
2023-02-16T11:04:35.609Z,9.40
2023-02-16T11:07:17.267Z,11.57
2023-02-16T11:09:46.622Z,12.10
2023-02-16T11:12:28.863Z,6.63
2023-02-16T11:15:19.011Z,12.10
2023-02-16T11:17:53.079Z,10.07
2023-02-16T11:20:56.375Z,7.77
2023-02-16T11:23:37.340Z,9.63
2023-02-16T11:26:10.203Z,7.80
2023-02-16T11:28:42.975Z,6.07
2023-02-16T11:31:16.068Z,9.60
2023-02-16T11:33:54.196Z,6.53
2023-02-16T11:36:27.930Z,9.47
2023-02-16T11:39:02.221Z,15.30
2023-02-16T11:41:30.070Z,7.47
2023-02-16T11:43:57.941Z,7.50
2023-02-16T11:46:24.931Z,8.53
2023-02-16T11:48:52.538Z,8.87
2023-02-16T11:51:36.080Z,11.17
2023-02-16T11:54:06.052Z,9.80
2023-02-16T11:56:35.504Z,11.07
2023-02-16T11:59:14.976Z,10.67
2023-02-16T12:02:00.034Z,8.13
2023-02-16T12:04:51.049Z,8.20
2023-02-16T12:07:41.223Z,8.30
2023-02-16T12:10:45.413Z,10.67
2023-02-16T12:13:48.900Z,9.90
2023-02-16T12:17:14.207Z,8.77
2023-02-16T12:19:47.669Z,10.37
2023-02-16T12:22:14.413Z,6.70
2023-02-16T12:24:53.026Z,11.47
2023-02-16T12:27:37.584Z,9.20
2023-02-16T12:30:23.790Z,7.93
2023-02-16T12:33:08.561Z,7.47
2023-02-16T12:35:56.982Z,6.67
2023-02-16T12:38:38.832Z,10.73
2023-02-16T12:41:19.920Z,6.17
2023-02-16T12:43:57.696Z,5.87
2023-02-16T12:46:53.468Z,9.93
2023-02-16T12:49:27.548Z,7.27
2023-02-16T12:52:07.169Z,7.53
2023-02-16T12:54:48.566Z,6.63
2023-02-16T12:57:23.176Z,7.43
2023-02-16T12:59:56.922Z,8.87
2023-02-16T13:02:43.058Z,9.30
2023-02-16T13:05:21.335Z,10.00
2023-02-16T13:07:53.089Z,6.80
2023-02-16T13:10:44.678Z,5.87
2023-02-16T13:13:18.099Z,7.27
2023-02-16T13:16:29.118Z,10.07
2023-02-16T13:18:57.258Z,10.23
2023-02-16T13:21:51.911Z,11.93
2023-02-16T13:24:55.226Z,6.53
2023-02-16T13:27:47.545Z,7.77
2023-02-16T13:30:43.938Z,8.60
2023-02-16T13:33:44.824Z,8.60
2023-02-16T13:36:41.771Z,6.27
2023-02-16T13:39:21.159Z,6.77
2023-02-16T13:42:09.945Z,9.53
2023-02-16T13:44:47.851Z,9.20
2023-02-16T13:47:20.809Z,6.90
2023-02-16T13:49:48.190Z,7.53
2023-02-16T13:52:37.085Z,7.60
2023-02-16T13:55:08.435Z,5.07
2023-02-16T13:57:56.237Z,9.60
2023-02-16T14:00:30.611Z,8.53
2023-02-16T14:03:16.395Z,11.90
2023-02-16T14:05:45.607Z,5.33
2023-02-16T14:08:28.598Z,6.70
2023-02-16T14:10:57.489Z,10.57
2023-02-16T14:13:32.692Z,9.97
2023-02-16T14:16:22.800Z,6.57
2023-02-16T14:19:03.052Z,6.90
2023-02-16T14:21:45.488Z,7.73
2023-02-16T14:24:25.988Z,7.43
2023-02-16T14:26:59.567Z,8.43
2023-02-16T14:29:31.908Z,7.30
2023-02-16T14:32:01.445Z,9.97
2023-02-16T14:34:31.336Z,6.77
2023-02-16T14:37:24.620Z,6.93
2023-02-16T14:40:07.370Z,7.30
2023-02-16T14:42:35.809Z,6.93
2023-02-16T14:45:39.733Z,6.77
2023-02-16T14:48:29.025Z,6.43
2023-02-16T14:51:34.766Z,8.80
2023-02-16T14:54:41.818Z,8.30
2023-02-16T14:57:14.454Z,6.90
2023-02-16T14:59:57.170Z,6.47
2023-02-16T15:02:42.193Z,8.30
2023-02-16T15:05:28.919Z,8.27
2023-02-16T15:08:16.317Z,8.37
2023-02-16T15:10:46.582Z,6.97
2023-02-16T15:13:22.503Z,14.53
2023-02-16T15:15:52.671Z,8.50
2023-02-16T15:18:22.889Z,8.67
2023-02-16T15:20:53.212Z,7.57
2023-02-16T15:23:25.732Z,8.60
2023-02-16T15:26:04.778Z,6.63
2023-02-16T15:28:37.844Z,8.73
2023-02-16T15:31:18.099Z,6.33
2023-02-16T15:33:59.863Z,12.03
2023-02-16T15:36:36.360Z,8.07
2023-02-16T15:39:08.800Z,8.17
2023-02-16T15:41:43.293Z,9.80
2023-02-16T15:44:28.885Z,9.93
2023-02-16T15:47:22.858Z,10.40
2023-02-16T15:49:50.479Z,10.23
2023-02-16T15:52:29.021Z,13.83
2023-02-16T15:54:56.826Z,9.80
2023-02-16T15:57:31.269Z,11.17
2023-02-16T16:00:08.485Z,13.43
2023-02-16T16:02:43.865Z,12.57
2023-02-16T16:05:22.217Z,8.73
2023-02-16T16:07:49.583Z,9.93
2023-02-16T16:10:32.629Z,8.77
2023-02-16T16:13:03.500Z,11.10
2023-02-16T16:15:34.094Z,9.10
2023-02-16T16:18:02.685Z,10.60
2023-02-16T16:20:31.640Z,11.17
2023-02-16T16:23:04.947Z,8.87
2023-02-16T16:25:38.489Z,10.90
2023-02-16T16:28:08.061Z,11.17
2023-02-16T16:30:37.631Z,8.07
2023-02-16T16:33:07.686Z,13.23
2023-02-16T16:35:49.763Z,10.23
2023-02-16T16:38:26.238Z,10.63
2023-02-16T16:40:58.923Z,10.53
2023-02-16T16:43:31.653Z,8.90
2023-02-16T16:46:23.360Z,10.70
2023-02-16T16:48:56.584Z,15.53
2023-02-16T16:51:28.921Z,8.27
2023-02-16T16:54:06.674Z,10.53
2023-02-16T16:56:39.772Z,12.07
2023-02-16T16:59:07.021Z,19.90
2023-02-16T17:01:34.158Z,14.27
2023-02-16T17:04:01.149Z,10.73
2023-02-16T17:06:28.201Z,14.23
2023-02-16T17:08:55.321Z,16.13
2023-02-16T17:11:28.336Z,11.03
2023-02-16T17:13:55.892Z,13.03
2023-02-16T17:16:31.840Z,13.90
2023-02-16T17:18:58.651Z,20.73
2023-02-16T17:21:25.517Z,12.77
2023-02-16T17:23:53.455Z,15.40
2023-02-16T17:26:21.790Z,19.13
2023-02-16T17:28:48.585Z,16.87
2023-02-16T17:31:16.009Z,17.70
2023-02-16T17:33:42.837Z,18.13
2023-02-16T17:36:14.455Z,13.00
2023-02-16T17:38:42.038Z,17.33
2023-02-16T17:41:21.683Z,17.10
2023-02-16T17:43:49.050Z,17.20
2023-02-16T17:46:17.130Z,14.10
2023-02-16T17:48:44.232Z,15.90
2023-02-16T17:51:17.250Z,15.30
2023-02-16T17:53:44.335Z,19.60
2023-02-16T17:56:13.256Z,13.87
2023-02-16T17:58:41.045Z,15.10
2023-02-16T18:01:10.275Z,13.07
2023-02-16T18:03:37.425Z,16.23
2023-02-16T18:06:04.855Z,16.80
2023-02-16T18:08:31.829Z,27.03
2023-02-16T18:11:02.171Z,18.33
2023-02-16T18:13:30.250Z,21.93
2023-02-16T18:15:58.661Z,17.67
2023-02-16T18:18:25.767Z,17.10
2023-02-16T18:20:53.154Z,13.73
2023-02-16T18:23:20.027Z,15.50
2023-02-16T18:25:46.959Z,18.17
2023-02-16T18:28:18.446Z,18.67
2023-02-16T18:30:47.911Z,15.27
2023-02-16T18:33:15.273Z,21.47
2023-02-16T18:35:42.131Z,20.57
2023-02-16T18:38:09.048Z,16.63
2023-02-16T18:40:35.813Z,20.23
2023-02-16T18:43:02.540Z,22.83
2023-02-16T18:45:29.326Z,19.57
2023-02-16T18:47:56.496Z,24.50
2023-02-16T18:50:23.367Z,15.37
2023-02-16T18:52:50.305Z,24.30
2023-02-16T18:55:17.221Z,17.27
2023-02-16T18:57:44.169Z,15.90
2023-02-16T19:00:12.339Z,19.07
2023-02-16T19:02:40.958Z,20.57
2023-02-16T19:05:10.409Z,21.47
2023-02-16T19:07:37.335Z,21.37
2023-02-16T19:10:07.345Z,20.10
2023-02-16T19:12:34.428Z,17.47
2023-02-16T19:15:03.857Z,18.07
2023-02-16T19:17:30.648Z,20.27
2023-02-16T19:19:57.417Z,25.83
2023-02-16T19:22:24.281Z,20.27
2023-02-16T19:24:53.495Z,17.60
2023-02-16T19:27:20.253Z,21.10
2023-02-16T19:29:47.393Z,21.60
2023-02-16T19:32:14.222Z,28.03
2023-02-16T19:34:41.041Z,20.50
2023-02-16T19:37:07.803Z,24.47
2023-02-16T19:39:35.325Z,19.90
2023-02-16T19:42:02.236Z,24.67
2023-02-16T19:44:29.509Z,24.13
2023-02-16T19:46:56.545Z,23.30
2023-02-16T19:49:23.367Z,25.00
2023-02-16T19:51:50.459Z,25.00
2023-02-16T19:54:17.343Z,23.23
2023-02-16T19:56:44.096Z,22.80
2023-02-16T19:59:11.084Z,25.10
2023-02-16T20:01:37.879Z,22.60
2023-02-16T20:04:04.941Z,19.53
2023-02-16T20:06:41.146Z,22.80
2023-02-16T20:09:08.735Z,20.97
2023-02-16T20:11:38.038Z,22.53
2023-02-16T20:14:05.140Z,28.90
2023-02-16T20:16:32.168Z,22.57
2023-02-16T20:18:59.508Z,22.97
2023-02-16T20:21:28.476Z,24.80
2023-02-16T20:24:01.980Z,23.60
2023-02-16T20:26:33.987Z,26.57
2023-02-16T20:29:01.681Z,25.97
2023-02-16T20:31:30.150Z,23.60
2023-02-16T20:33:57.329Z,30.17
2023-02-16T20:36:24.174Z,23.67
2023-02-16T20:38:50.938Z,27.47
2023-02-16T20:41:18.983Z,24.60
2023-02-16T20:43:46.103Z,28.33
2023-02-16T20:46:14.840Z,28.00
2023-02-16T20:48:41.641Z,25.73
2023-02-16T20:51:09.085Z,23.37
2023-02-16T20:53:36.334Z,24.67
2023-02-16T20:56:07.054Z,20.03
2023-02-16T20:58:35.997Z,21.47
2023-02-16T21:01:03.743Z,19.00
2023-02-16T21:03:30.687Z,19.80
2023-02-16T21:05:57.473Z,21.87
2023-02-16T21:08:24.170Z,19.07
2023-02-16T21:10:50.972Z,27.73
2023-02-16T21:13:17.770Z,30.00
2023-02-16T21:15:44.595Z,23.27
2023-02-16T21:18:11.480Z,21.27
2023-02-16T21:20:38.193Z,24.97
2023-02-16T21:23:04.983Z,32.37
2023-02-16T21:25:31.812Z,24.07
2023-02-16T21:27:58.644Z,24.77
2023-02-16T21:30:25.467Z,21.97
2023-02-16T21:32:52.250Z,22.97
2023-02-16T21:35:19.054Z,20.07
2023-02-16T21:37:45.837Z,24.77
2023-02-16T21:40:33.026Z,25.27
2023-02-16T21:42:59.756Z,27.80
2023-02-16T21:45:26.521Z,26.17
2023-02-16T21:48:11.876Z,27.17
2023-02-16T21:50:41.002Z,21.23
2023-02-16T21:53:09.105Z,25.17
2023-02-16T21:55:56.289Z,25.50
2023-02-16T21:58:26.725Z,30.67
2023-02-16T22:00:54.705Z,27.33
2023-02-16T22:03:21.525Z,25.10
2023-02-16T22:05:48.448Z,18.83
2023-02-16T22:08:15.308Z,16.97
2023-02-16T22:10:42.065Z,19.83
2023-02-16T22:13:08.872Z,21.37
2023-02-16T22:15:37.075Z,19.93
2023-02-16T22:18:05.280Z,17.00
2023-02-16T22:20:32.364Z,18.47
2023-02-16T22:22:59.182Z,24.60
2023-02-16T22:25:25.974Z,21.43
2023-02-16T22:27:53.002Z,17.47
2023-02-16T22:30:19.947Z,21.40
2023-02-16T22:32:46.824Z,19.87
2023-02-16T22:35:13.651Z,17.83
2023-02-16T22:37:40.384Z,19.00
2023-02-16T22:40:07.561Z,18.33
2023-02-16T22:42:36.276Z,18.73
2023-02-16T22:45:03.998Z,18.50
2023-02-16T22:47:31.374Z,18.83
2023-02-16T22:49:58.074Z,26.10
2023-02-16T22:52:24.929Z,20.27
2023-02-16T22:54:51.896Z,17.87
2023-02-16T22:57:18.984Z,16.93
2023-02-16T22:59:45.997Z,19.83
2023-02-16T23:02:12.787Z,16.17
2023-02-16T23:04:41.189Z,17.97
2023-02-16T23:07:09.301Z,16.80
2023-02-16T23:09:37.271Z,15.33
2023-02-16T23:12:04.323Z,18.17
2023-02-16T23:14:31.420Z,17.27
2023-02-16T23:16:58.194Z,17.47
2023-02-16T23:19:26.813Z,19.37
2023-02-16T23:21:54.625Z,16.57
2023-02-16T23:24:23.057Z,18.53
2023-02-16T23:26:50.861Z,20.77
2023-02-16T23:29:17.881Z,21.60
2023-02-16T23:31:46.961Z,20.67
2023-02-16T23:34:14.381Z,20.83
2023-02-16T23:36:41.753Z,18.93
2023-02-16T23:39:13.931Z,20.93
2023-02-16T23:41:42.003Z,29.93
2023-02-16T23:44:11.914Z,19.93
2023-02-16T23:46:38.850Z,21.07
2023-02-16T23:49:05.646Z,22.37
2023-02-16T23:51:32.423Z,20.40
2023-02-16T23:53:59.590Z,20.60
2023-02-16T23:56:28.291Z,17.73
2023-02-16T23:59:01.159Z,17.67
